Time;durP1;ratioP1;P1;durP2;ratioP2;P2;SDS_P1;SDS_P2;PMS_P1;PMS_P2;Temp;Humidity;BMP_temperature;BMP_pressure;BME280_temperature;BME280_humidity;BME280_pressure;Samples;Min_cycle;Max_cycle;Signal;HPM_P1;HPM_P2
2022/09/21 00:03:13;;;;;;;6.88;3.58;;;;;;;;;;6303466;22;20019;-86
2022/09/21 00:05:40;;;;;;;9.63;4.10;;;;;;;;;;6301744;22;20023;-83
2022/09/21 00:16:46;;;;;;;9.70;3.80;;;;;;;;;;6301945;22;20344;-86
2022/09/21 00:29:16;;;;;;;7.07;3.75;;;;;;;;;;6300513;22;20014;-86
2022/09/21 00:31:51;;;;;;;12.20;4.22;;;;;;;;;;6267233;22;20016;-85
2022/09/21 00:34:43;;;;;;;10.55;4.30;;;;;;;;;;6247716;22;20084;-88
2022/09/21 00:37:10;;;;;;;9.65;3.65;;;;;;;;;;6301571;22;20022;-83
2022/09/21 00:39:36;;;;;;;12.70;4.20;;;;;;;;;;6306544;22;20351;-84
2022/09/21 00:45:23;;;;;;;10.07;3.70;;;;;;;;;;6267729;22;20478;-82
2022/09/21 00:48:01;;;;;;;14.02;3.97;;;;;;;;;;6244988;22;20021;-82
2022/09/21 00:57:34;;;;;;;10.27;3.85;;;;;;;;;;6292014;22;20100;-82
2022/09/21 01:00:02;;;;;;;13.10;3.88;;;;;;;;;;6297584;22;20462;-82
2022/09/21 01:05:32;;;;;;;9.88;4.40;;;;;;;;;;6295920;22;20059;-84
2022/09/21 01:08:03;;;;;;;7.13;3.95;;;;;;;;;;6301813;22;20033;-84
2022/09/21 01:24:40;;;;;;;10.13;4.37;;;;;;;;;;6164565;22;1260155;-84
2022/09/21 01:51:19;;;;;;;9.25;3.70;;;;;;;;;;6301180;22;20017;-83
2022/09/21 01:53:48;;;;;;;12.77;4.07;;;;;;;;;;6273534;22;20092;-83
2022/09/21 01:56:33;;;;;;;8.38;3.47;;;;;;;;;;6236012;22;20058;-86
2022/09/21 02:09:14;;;;;;;8.18;3.53;;;;;;;;;;6303396;22;20096;-83
2022/09/21 02:11:43;;;;;;;12.05;4.43;;;;;;;;;;6274595;22;20051;-84
2022/09/21 02:27:33;;;;;;;11.77;5.45;;;;;;;;;;6242271;23;20043;-83
2022/09/21 02:37:21;;;;;;;10.77;5.13;;;;;;;;;;6269678;22;20090;-83
2022/09/21 02:39:50;;;;;;;7.35;4.90;;;;;;;;;;6219371;22;20023;-84
2022/09/21 02:49:34;;;;;;;10.90;4.60;;;;;;;;;;6323842;22;20588;-83
2022/09/21 02:52:03;;;;;;;13.93;4.80;;;;;;;;;;6278714;22;20026;-83
2022/09/21 02:54:46;;;;;;;8.25;4.93;;;;;;;;;;6307216;22;20015;-83
2022/09/21 02:59:47;;;;;;;8.43;4.10;;;;;;;;;;6333339;22;20033;-85
2022/09/21 03:02:45;;;;;;;10.60;4.10;;;;;;;;;;6335987;22;20350;-83
2022/09/21 03:05:20;;;;;;;10.27;4.60;;;;;;;;;;6310745;22;20015;-84
2022/09/21 03:07:55;;;;;;;12.48;5.78;;;;;;;;;;6344891;22;20410;-83
2022/09/21 03:10:25;;;;;;;6.18;4.43;;;;;;;;;;6343144;22;20060;-85
2022/09/21 03:13:03;;;;;;;9.23;4.10;;;;;;;;;;6258369;22;20023;-83
2022/09/21 03:15:32;;;;;;;6.40;4.30;;;;;;;;;;6281002;22;20022;-83
2022/09/21 03:17:58;;;;;;;10.05;4.25;;;;;;;;;;6308573;22;20016;-83
2022/09/21 03:28:57;;;;;;;14.68;4.85;;;;;;;;;;6320743;22;20031;-84
2022/09/21 03:31:24;;;;;;;11.20;5.40;;;;;;;;;;6307200;22;20091;-82
2022/09/21 03:33:54;;;;;;;9.85;5.68;;;;;;;;;;6303938;22;20018;-85
2022/09/21 03:39:32;;;;;;;9.63;6.00;;;;;;;;;;6291090;22;20035;-85
2022/09/21 03:48:14;;;;;;;;;;;;;;;;;;6289820;22;20025;-83
2022/09/21 03:51:05;;;;;;;10.05;5.22;;;;;;;;;;6275515;22;19941;-83
2022/09/21 03:53:47;;;;;;;8.80;5.03;;;;;;;;;;6300393;22;20023;-83
2022/09/21 04:05:10;;;;;;;7.15;4.65;;;;;;;;;;6273936;22;20025;-83
2022/09/21 04:23:43;;;;;;;5.22;3.75;;;;;;;;;;6301060;22;20393;-82
2022/09/21 04:33:09;;;;;;;7.50;3.40;;;;;;;;;;6270924;22;20019;-83
2022/09/21 04:35:35;;;;;;;9.18;3.78;;;;;;;;;;6267429;22;20048;-83
2022/09/21 04:38:04;;;;;;;9.73;4.22;;;;;;;;;;6267956;22;20386;-82
2022/09/21 04:51:06;;;;;;;7.55;4.68;;;;;;;;;;6302046;22;20058;-83
2022/09/21 05:00:12;;;;;;;6.65;4.90;;;;;;;;;;6302864;22;20208;-83
2022/09/21 05:13:37;;;;;;;8.23;5.70;;;;;;;;;;6296771;22;20014;-85
2022/09/21 05:19:35;;;;;;;6.45;5.72;;;;;;;;;;6301252;22;20549;-87
2022/09/21 05:22:29;;;;;;;9.45;5.72;;;;;;;;;;6272375;22;20015;-84
2022/09/21 05:25:24;;;;;;;6.53;3.65;;;;;;;;;;6302315;22;20019;-85
2022/09/21 05:27:50;;;;;;;7.65;3.33;;;;;;;;;;6299530;22;20296;-88
2022/09/21 05:30:16;;;;;;;6.68;2.70;;;;;;;;;;6274190;22;20019;-88
2022/09/21 05:36:01;;;;;;;41.35;4.20;;;;;;;;;;6312037;22;20019;-86
2022/09/21 05:38:27;;;;;;;28.10;3.70;;;;;;;;;;6285641;22;20428;-86
2022/09/21 05:41:12;;;;;;;38.58;4.45;;;;;;;;;;6276633;22;20027;-86
2022/09/21 05:50:56;;;;;;;4.72;4.20;;;;;;;;;;6298341;22;20050;-85
2022/09/21 05:57:19;;;;;;;7.80;5.00;;;;;;;;;;6295530;22;20038;-89
2022/09/21 06:20:16;;;;;;;16.65;8.25;;;;;;;;;;6316027;22;20034;-84
2022/09/21 06:23:10;;;;;;;14.23;8.02;;;;;;;;;;6278228;22;20115;-86
2022/09/21 06:29:23;;;;;;;14.75;8.60;;;;;;;;;;6228224;22;20054;-84
2022/09/21 06:31:50;;;;;;;17.20;8.15;;;;;;;;;;6303238;22;20093;-85
2022/09/21 06:39:44;;;;;;;18.10;9.65;;;;;;;;;;6301788;22;20022;-85
2022/09/21 06:42:10;;;;;;;18.90;9.00;;;;;;;;;;6301635;22;20065;-85
2022/09/21 06:45:02;;;;;;;18.13;10.07;;;;;;;;;;6302426;22;20534;-85
2022/09/21 06:50:50;;;;;;;13.48;7.82;;;;;;;;;;6285546;22;20092;-86
2022/09/21 06:53:42;;;;;;;12.23;7.65;;;;;;;;;;6285255;22;20322;-84
2022/09/21 06:56:09;;;;;;;17.58;9.07;;;;;;;;;;6301877;22;20019;-84
2022/09/21 06:58:54;;;;;;;12.70;8.07;;;;;;;;;;6303239;22;20015;-84
2022/09/21 07:08:05;;;;;;;13.00;7.75;;;;;;;;;;6302062;22;20041;-84
2022/09/21 07:14:00;;;;;;;20.40;8.85;;;;;;;;;;6302316;22;20030;-87
2022/09/21 07:23:00;;;;;;;20.05;9.23;;;;;;;;;;6235837;23;20020;-86
2022/09/21 07:28:36;;;;;;;17.80;7.03;;;;;;;;;;6210744;23;20031;-84
2022/09/21 07:33:55;;;;;;;14.25;7.10;;;;;;;;;;6307224;22;20065;-84
2022/09/21 07:36:21;;;;;;;9.70;6.57;;;;;;;;;;6285161;22;20071;-83
2022/09/21 07:46:23;;;;;;;14.95;5.95;;;;;;;;;;6322569;22;20033;-87
2022/09/21 07:54:36;;;;;;;14.20;4.45;;;;;;;;;;6334435;22;20088;-87
2022/09/21 08:07:27;;;;;;;11.15;3.78;;;;;;;;;;6315279;22;20082;-85
2022/09/21 08:12:47;;;;;;;14.20;3.90;;;;;;;;;;6305055;22;20019;-90
2022/09/21 08:18:44;;;;;;;9.68;3.78;;;;;;;;;;6303312;22;20093;-84
2022/09/21 08:22:02;;;;;;;7.65;3.47;;;12.20;99.90;;;;;;6296177;22;20027;-86
2022/09/21 08:24:28;;;;;;;13.20;3.38;;;;;;;;;;6275578;22;20070;-84
2022/09/21 08:27:03;;;;;;;12.80;3.63;;;;;;;;;;6299586;22;20019;-83
2022/09/21 08:29:32;;;;;;;12.13;3.10;;;;;;;;;;6300958;22;20440;-83
2022/09/21 08:32:13;;;;;;;20.15;3.33;;;;;;;;;;6300242;22;20112;-84
2022/09/21 08:34:49;;;;;;;9.75;2.97;;;;;;;;;;6299415;22;20031;-83
2022/09/21 08:37:45;;;;;;;12.73;2.97;;;;;;;;;;6302724;22;20015;-83
2022/09/21 08:40:15;;;;;;;13.95;2.80;;;;;;;;;;6297604;22;20016;-83
2022/09/21 08:45:39;;;;;;;13.35;2.63;;;;;;;;;;6293357;22;20070;-84
2022/09/21 08:52:17;;;;;;;12.15;2.17;;;;;;;;;;6298235;22;20332;-84
2022/09/21 08:54:48;;;;;;;7.10;1.67;;;;;;;;;;6293485;22;20011;-83
2022/09/21 09:00:49;;;;;;;10.32;2.38;;;;;;;;;;6296327;22;20069;-83
2022/09/21 09:07:25;;;;;;;6.93;1.25;;;;;;;;;;6273848;22;20164;-84
2022/09/21 09:13:30;;;;;;;7.72;1.30;;;;;;;;;;6283761;22;20106;-84
2022/09/21 09:26:01;;;;;;;8.65;1.30;;;;;;;;;;6267946;22;20028;-82
2022/09/21 09:28:27;;;;;;;7.50;1.05;;;;;;;;;;6269598;22;20024;-83
2022/09/21 09:31:00;;;;;;;6.90;0.90;;;;;;;;;;6293495;22;20020;-84
2022/09/21 09:34:03;;;;;;;10.10;2.22;;;;;;;;;;6270188;22;20078;-82
2022/09/21 09:36:32;;;;;;;8.27;1.05;;;;;;;;;;6293832;22;20055;-83
2022/09/21 09:39:01;;;;;;;6.63;1.58;;;;;;;;;;6269183;22;20082;-83
2022/09/21 09:44:49;;;;;;;5.80;1.30;;;;;;;;;;6301959;22;20526;-82
2022/09/21 09:47:33;;;;;;;5.30;1.17;;;;;;;;;;6299376;22;20027;-84
2022/09/21 09:50:21;;;;;;;5.05;1.27;;;;;;;;;;6248073;22;20340;-84
2022/09/21 09:52:58;;;;;;;5.20;1.10;;;;;;;;;;6272449;22;20114;-82
2022/09/21 09:55:32;;;;;;;8.02;0.95;;;;;;;;;;6273007;22;20027;-83
2022/09/21 09:57:58;;;;;;;7.73;1.70;;;;;;;;;;6299523;22;20028;-83
2022/09/21 10:04:47;;;;;;;5.25;1.33;;;15.90;99.90;;;;;;6271858;22;20474;-83
2022/09/21 10:10:49;;;;;;;10.80;1.35;;;;;;;;;;6302691;22;20076;-84
2022/09/21 10:13:28;;;;;;;10.27;1.52;;;;;;;;;;6250091;22;20020;-84
2022/09/21 10:16:05;;;;;;;7.00;1.38;;;;;;;;;;6273382;22;20069;-83
2022/09/21 10:18:39;;;;;;;10.18;1.33;;;;;;;;;;6304396;22;20015;-85
2022/09/21 10:21:48;;;;;;;9.48;1.33;;;;;;;;;;6240177;23;20015;-85
2022/09/21 10:24:28;;;;;;;7.97;1.25;;;;;;;;;;6225163;23;20253;-83
2022/09/21 10:27:11;;;;;;;7.30;1.10;;;;;;;;;;6229644;23;20024;-83
2022/09/21 10:29:48;;;;;;;5.75;1.23;;;;;;;;;;6252032;23;20115;-83
2022/09/21 10:35:52;;;;;;;6.00;1.10;;;;;;;;;;6241314;23;20380;-83
2022/09/21 10:42:18;;;;;;;5.32;1.10;;;17.50;99.90;;;;;;6239044;23;20011;-84
2022/09/21 10:48:17;;;;;;;8.85;1.48;;;;;;;;;;6244934;22;20103;-83
2022/09/21 10:50:48;;;;;;;4.60;1.05;;;;;;;;;;6217351;22;20019;-83
2022/09/21 10:53:27;;;;;;;5.45;1.95;;;;;;;;;;6244616;22;20062;-83
2022/09/21 10:59:21;;;;;;;9.65;1.17;;;;;;;;;;6272425;22;20051;-83
2022/09/21 11:01:49;;;;;;;11.70;1.10;;;;;;;;;;6267259;22;20016;-85
2022/09/21 11:04:46;;;;;;;7.35;0.98;;;;;;;;;;6271930;22;20469;-84
2022/09/21 11:07:43;;;;;;;7.97;1.20;;;;;;;;;;6268296;22;20027;-83
2022/09/21 11:10:28;;;;;;;5.20;1.20;;;;;;;;;;6242645;22;20504;-82
2022/09/21 11:16:31;;;;;;;8.00;1.33;;;;;;;;;;6215150;22;20018;-82
2022/09/21 11:19:11;;;;;;;4.63;1.00;;;;;;;;;;6269611;22;20123;-83
2022/09/21 11:22:11;;;;;;;7.38;1.17;;;19.10;99.90;;;;;;6270778;22;20019;-83
2022/09/21 11:24:48;;;;;;;4.63;1.10;;;;;;;;;;6268190;22;20348;-83
2022/09/21 11:27:22;;;;;;;2.90;0.80;;;;;;;;;;6270216;22;20020;-82
2022/09/21 11:30:13;;;;;;;3.97;0.95;;;;;;;;;;6268370;22;20023;-84
2022/09/21 11:32:42;;;;;;;5.72;1.30;;;;;;;;;;6269392;22;20080;-83
2022/09/21 11:35:40;;;;;;;6.72;1.52;;;;;;;;;;6268312;22;20019;-83
2022/09/21 11:38:25;;;;;;;2.40;1.02;;;;;;;;;;6268265;22;20023;-82
2022/09/21 11:40:59;;;;;;;5.18;0.80;;;;;;;;;;6271806;22;20360;-83
2022/09/21 11:43:48;;;;;;;3.67;0.80;;;;;;;;;;6239857;22;20027;-83
2022/09/21 11:49:55;;;;;;;4.32;0.90;;;18.80;99.90;;;;;;6267720;22;20080;-83
2022/09/21 11:52:38;;;;;;;3.40;0.85;;;;;;;;;;6266959;22;20038;-83
2022/09/21 11:55:05;;;;;;;4.03;0.70;;;;;;;;;;6235178;23;20171;-83
2022/09/21 11:57:35;;;;;;;5.30;1.25;;;;;;;;;;6208009;23;20096;-83
2022/09/21 12:00:16;;;;;;;6.43;1.65;;;;;;;;;;6209685;23;20249;-82
2022/09/21 12:02:51;;;;;;;3.63;1.10;;;;;;;;;;6235862;23;20075;-83
2022/09/21 12:05:41;;;;;;;5.30;1.13;;;;;;;;;;6235851;23;20392;-90
2022/09/21 12:08:17;;;;;;;6.22;1.30;;;;;;;;;;6237008;23;20479;-85
2022/09/21 12:14:06;;;;;;;7.82;1.00;;;;;;;;;;6211457;23;20078;-83
2022/09/21 12:16:43;;;;;;;10.30;1.40;;;;;;;;;;6239866;23;20048;-90
2022/09/21 12:19:31;;;;;;;7.18;1.05;;;;;;;;;;6217045;23;20026;-87
2022/09/21 12:22:16;;;;;;;3.83;1.10;;;;;;;;;;6212625;23;20067;-88
2022/09/21 12:24:46;;;;;;;9.05;1.10;;;;;;;;;;6236789;23;20074;-89
2022/09/21 12:27:35;;;;;;;8.07;1.30;;;;;;;;;;6240426;22;20016;-87
2022/09/21 12:30:12;;;;;;;5.82;1.20;;;;;;;;;;6256616;22;20026;-84
2022/09/21 12:32:52;;;;;;;10.10;1.40;;;;;;;;;;6244308;22;20020;-87
2022/09/21 12:35:41;;;;;;;4.07;1.00;;;;;;;;;;6216268;22;20074;-87
2022/09/21 12:38:26;;;;;;;5.97;0.90;;;;;;;;;;6218803;22;20026;-84
2022/09/21 12:41:06;;;;;;;5.40;1.30;;;;;;;;;;6218747;22;20023;-83
2022/09/21 12:43:36;;;;;;;5.95;1.13;;;;;;;;;;6243274;22;20024;-89
2022/09/21 12:46:08;;;;;;;4.65;1.10;;;;;;;;;;6271987;22;20016;-85
2022/09/21 12:48:38;;;;;;;7.90;1.75;;;;;;;;;;6273793;22;20134;-88
2022/09/21 12:51:17;;;;;;;8.77;1.77;;;;;;;;;;6271757;22;20387;-88
2022/09/21 12:53:47;;;;;;;5.13;1.10;;;;;;;;;;6276174;22;20020;-86
2022/09/21 12:56:22;;;;;;;6.70;1.83;;;;;;;;;;6279274;22;20027;-84
2022/09/21 12:59:08;;;;;;;7.00;1.75;;;;;;;;;;6256646;22;20024;-85
2022/09/21 13:01:34;;;;;;;9.68;1.40;;;;;;;;;;6276742;22;20020;-84
2022/09/21 13:04:19;;;;;;;4.28;0.98;;;;;;;;;;6245606;22;20031;-84
2022/09/21 13:06:57;;;;;;;6.75;1.05;;;;;;;;;;6270842;22;20460;-85
2022/09/21 13:09:24;;;;;;;5.60;1.10;;;;;;;;;;6242084;22;20098;-87
2022/09/21 13:11:57;;;;;;;6.47;1.30;;;;;;;;;;6270988;22;20091;-86
2022/09/21 13:14:31;;;;;;;5.82;1.25;;;;;;;;;;6267713;22;20026;-83
2022/09/21 13:17:06;;;;;;;6.65;1.27;;;;;;;;;;6215876;22;20094;-83
2022/09/21 13:19:35;;;;;;;6.97;1.50;;;;;;;;;;6240648;22;20020;-84
2022/09/21 13:22:20;;;;;;;5.57;1.30;;;;;;;;;;6240851;22;20032;-87
2022/09/21 13:25:01;;;;;;;3.50;1.27;;;;;;;;;;6269158;22;20023;-83
2022/09/21 13:27:46;;;;;;;7.22;1.05;;;;;;;;;;6240546;22;20016;-85
2022/09/21 13:30:28;;;;;;;5.32;1.38;;;;;;;;;;6216077;22;20015;-83
2022/09/21 13:32:54;;;;;;;8.02;1.20;;;;;;;;;;6269307;22;20026;-85
2022/09/21 13:35:46;;;;;;;5.38;0.93;;;;;;;;;;6269747;22;20054;-86
2022/09/21 13:38:36;;;;;;;4.82;1.00;;;;;;;;;;6260662;22;20471;-89
2022/09/21 13:41:24;;;;;;;4.55;1.20;;;;;;;;;;6272296;22;20118;-87
2022/09/21 13:43:56;;;;;;;4.97;1.30;;;;;;;;;;6244952;22;20032;-83
2022/09/21 13:46:37;;;;;;;7.35;1.10;;;;;;;;;;6271694;22;20019;-84
2022/09/21 13:49:15;;;;;;;3.65;1.17;;;;;;;;;;6269831;22;20023;-83
2022/09/21 13:51:53;;;;;;;6.53;1.30;;;;;;;;;;6243090;22;20142;-83
2022/09/21 13:54:21;;;;;;;5.18;1.08;;;;;;;;;;6240758;22;20076;-84
2022/09/21 13:57:08;;;;;;;6.25;1.15;;;;;;;;;;6244072;22;20091;-85
2022/09/21 13:59:37;;;;;;;8.35;1.33;;;;;;;;;;6259538;22;20012;-84
2022/09/21 14:02:18;;;;;;;4.15;0.77;;;;;;;;;;6270849;22;20457;-82
2022/09/21 14:04:54;;;;;;;9.27;1.52;;;;;;;;;;6272518;22;20016;-83
2022/09/21 14:07:28;;;;;;;5.38;1.30;;;;;;;;;;6270078;22;20846;-82
2022/09/21 14:09:59;;;;;;;7.80;1.40;;;;;;;;;;6276476;22;20016;-86
2022/09/21 14:12:26;;;;;;;5.25;0.77;;;;;;;;;;6271628;22;20042;-85
2022/09/21 14:15:27;;;;;;;5.57;0.88;;;;;;;;;;6245199;22;20047;-83
2022/09/21 14:18:10;;;;;;;5.45;0.90;;;;;;;;;;6270166;22;20027;-84
2022/09/21 14:20:36;;;;;;;9.55;1.05;;;;;;;;;;6268770;22;20047;-83
2022/09/21 14:23:11;;;;;;;4.13;0.90;;;;;;;;;;6269428;22;20467;-84
2022/09/21 14:25:47;;;;;;;5.35;1.00;;;;;;;;;;6269559;22;20842;-84
2022/09/21 14:28:16;;;;;;;6.60;1.00;;;;;;;;;;6272494;22;20015;-86
2022/09/21 14:30:47;;;;;;;7.75;1.00;;;;;;;;;;6271262;22;20012;-83
2022/09/21 14:33:29;;;;;;;5.80;0.93;;;;;;;;;;6245325;22;20015;-82
2022/09/21 14:35:56;;;;;;;6.32;1.02;;;;;;;;;;6271179;22;21130;-88
2022/09/21 14:38:30;;;;;;;3.88;1.00;;;;;;;;;;6267729;22;20019;-83
2022/09/21 14:41:08;;;;;;;5.35;1.15;;;;;;;;;;6243767;22;20381;-83
2022/09/21 14:43:51;;;;;;;5.88;0.82;;;;;;;;;;6238331;22;20023;-85
2022/09/21 14:46:36;;;;;;;3.60;1.10;;;;;;;;;;6271548;22;20018;-87
2022/09/21 14:49:05;;;;;;;4.35;1.20;;;;;;;;;;6268673;22;20493;-87
2022/09/21 14:51:35;;;;;;;10.45;1.10;;;;;;;;;;6241736;22;20038;-87
2022/09/21 14:54:04;;;;;;;4.25;1.10;;;;;;;;;;6268985;22;20524;-85
2022/09/21 14:56:39;;;;;;;4.78;1.00;;;;;;;;;;6239526;22;20019;-87
2022/09/21 14:59:32;;;;;;;5.72;1.10;;;;;;;;;;6268801;22;20035;-83
2022/09/21 15:05:02;;;;;;;9.15;1.00;;;;;;;;;;6275552;22;20027;-88
2022/09/21 15:13:04;;;;;;;6.30;0.95;;;;;;;;;;6252513;22;20027;-83
2022/09/21 15:15:52;;;;;;;4.70;0.93;;;;;;;;;;6278083;22;20020;-84
2022/09/21 15:18:24;;;;;;;5.00;1.02;;;;;;;;;;6256008;22;20018;-81
2022/09/21 15:21:02;;;;;;;5.72;0.93;;;;;;;;;;6280919;22;20016;-82
2022/09/21 15:23:38;;;;;;;5.60;1.05;;;;;;;;;;6250068;22;20055;-88
2022/09/21 15:26:28;;;;;;;5.28;1.10;;;;;;;;;;6284042;22;20020;-86
2022/09/21 15:28:55;;;;;;;4.43;0.90;;;;;;;;;;6256718;22;20413;-87
2022/09/21 15:31:21;;;;;;;5.03;1.10;;;;;;;;;;6256811;22;20024;-86
2022/09/21 15:33:49;;;;;;;3.42;1.17;;;;;;;;;;6273813;22;20016;-83
2022/09/21 15:36:33;;;;;;;4.00;1.15;;;;;;;;;;6274332;22;20015;-84
2022/09/21 15:42:10;;;;;;;5.75;1.15;;;;;;;;;;6243545;22;20061;-85
2022/09/21 15:44:39;;;;;;;2.90;0.80;;;;;;;;;;6242846;22;20023;-87
2022/09/21 15:47:25;;;;;;;4.93;1.00;;;;;;;;;;6276405;22;20042;-84
2022/09/21 15:49:57;;;;;;;3.70;1.02;;;;;;;;;;6276585;22;20023;-84
2022/09/21 15:52:52;;;;;;;8.07;1.08;;;;;;;;;;6249820;22;20066;-83
2022/09/21 15:55:44;;;;;;;4.93;0.80;;;;;;;;;;6253105;22;20023;-86
2022/09/21 15:58:36;;;;;;;5.80;1.08;;;;;;;;;;6211968;22;20020;-84
2022/09/21 16:01:23;;;;;;;6.60;1.35;;;;;;;;;;6258201;22;20074;-85
2022/09/21 16:04:00;;;;;;;5.55;1.20;;;;;;;;;;6266228;22;20038;-82
2022/09/21 16:06:34;;;;;;;8.18;1.27;;;;;;;;;;6269648;22;20016;-88
2022/09/21 16:09:20;;;;;;;4.70;1.15;;;;;;;;;;6273348;22;20055;-86
2022/09/21 16:11:50;;;;;;;7.03;1.23;;;;;;;;;;6220505;22;20073;-87
2022/09/21 16:17:11;;;;;;;7.03;1.02;;;;;;;;;;6270465;22;20019;-84
2022/09/21 16:19:41;;;;;;;5.30;0.77;;;;;;;;;;6241792;22;20350;-87
2022/09/21 16:22:18;;;;;;;4.10;0.93;;;;;;;;;;6270553;22;20098;-91
2022/09/21 16:24:45;;;;;;;4.25;0.75;;;;;;;;;;6241981;22;20026;-84
2022/09/21 16:27:17;;;;;;;6.18;0.90;;;;;;;;;;6270195;22;20019;-88
2022/09/21 16:29:44;;;;;;;6.43;0.90;;;;;;;;;;6243730;22;20016;-90
2022/09/21 16:32:22;;;;;;;6.78;1.70;;;;;;;;;;6271579;22;20011;-86
2022/09/21 16:34:50;;;;;;;4.60;1.05;;;;;;;;;;6268354;22;20042;-86
2022/09/21 16:37:27;;;;;;;7.78;1.38;;;;;;;;;;6249086;22;20015;-88
2022/09/21 16:40:01;;;;;;;3.78;1.05;;;;;;;;;;6292677;22;20016;-86
2022/09/21 16:42:44;;;;;;;5.45;1.30;;;;;;;;;;6263594;22;20011;-84
2022/09/21 16:45:30;;;;;;;6.05;1.00;;;;;;;;;;6285502;22;20452;-85
2022/09/21 16:50:59;;;;;;;9.18;1.08;;;;;;;;;;6336566;22;20018;-85
2022/09/21 16:57:18;;;;;;;7.95;1.20;;;;;;;;;;6353389;22;20019;-86
2022/09/21 16:59:44;;;;;;;4.45;0.90;;;;;;;;;;6303853;22;20023;-86
2022/09/21 17:02:12;;;;;;;5.68;1.20;;;;;;;;;;6335290;22;20456;-86
2022/09/21 17:04:39;;;;;;;3.92;0.88;;;;;;;;;;6278994;22;20014;-87
2022/09/21 17:07:05;;;;;;;3.88;1.00;;;;;;;;;;6304667;22;20023;-89
2022/09/21 17:09:34;;;;;;;5.78;1.13;;;;;;;;;;6333789;22;20343;-87
2022/09/21 17:12:01;;;;;;;7.20;1.17;;;;;;;;;;6349781;22;20007;-87
2022/09/21 17:14:56;;;;;;;3.70;0.88;;;;;;;;;;6382591;22;20072;-88
2022/09/21 17:17:25;;;;;;;6.93;1.30;;;;;;;;;;6326604;22;20033;-85
2022/09/21 17:19:52;;;;;;;3.88;0.98;;;;;;;;;;6356693;22;20018;-86
2022/09/21 17:22:23;;;;;;;7.72;1.10;;;;;;;;;;6382013;22;20085;-85
2022/09/21 17:24:51;;;;;;;9.82;1.30;;;;;;;;;;6380816;22;20334;-85
2022/09/21 17:27:22;;;;;;;4.07;1.38;;;;;;;;;;6328324;22;20334;-87
2022/09/21 17:29:53;;;;;;;4.50;1.13;;;;;;;;;;6300026;22;20042;-90
2022/09/21 17:32:48;;;;;;;2.67;0.80;;;;;;;;;;6380316;22;20067;-92
2022/09/21 17:35:16;;;;;;;11.70;1.52;;;;;;;;;;6306600;22;20020;-89
2022/09/21 17:37:42;;;;;;;4.88;1.00;;;;;;;;;;6380072;22;20015;-91
2022/09/21 17:40:08;;;;;;;3.13;0.80;;;;;;;;;;6377106;22;20014;-88
2022/09/21 17:42:53;;;;;;;2.50;0.63;;;;;;;;;;6351526;22;20022;-89
2022/09/21 17:45:49;;;;;;;6.97;1.25;;;14.60;99.90;;;;;;6378195;22;20073;-90
2022/09/21 17:48:19;;;;;;;7.60;1.10;;;;;;;;;;6324566;22;20346;-92
2022/09/21 17:50:49;;;;;;;7.82;1.55;;;;;;;;;;6377407;22;20094;-89
2022/09/21 17:56:24;;;;;;;11.38;1.90;;;;;;;;;;6356517;22;20089;-86
2022/09/21 17:59:05;;;;;;;3.28;0.70;;;;;;;;;;6336137;22;20101;-87
2022/09/21 18:01:38;;;;;;;6.72;1.10;;;;;;;;;;6337756;22;20022;-88
2022/09/21 18:04:07;;;;;;;5.72;0.88;;;;;;;;;;6334076;22;20026;-87
2022/09/21 18:06:34;;;;;;;9.52;1.42;;;;;;;;;;6336267;22;20019;-84
2022/09/21 18:09:18;;;;;;;8.30;2.47;;;;;;;;;;6361809;22;20014;-88
2022/09/21 18:11:50;;;;;;;;;;;;;;;;;;6365100;22;20018;-89
2022/09/21 18:14:23;;;;;;;2.90;0.70;;;;;;;;;;6335704;22;19939;-87
2022/09/21 18:17:05;;;;;;;7.32;1.25;;;;;;;;;;6367925;22;20022;-87
2022/09/21 18:19:49;;;;;;;8.25;1.05;;;;;;;;;;6336490;22;20014;-88
2022/09/21 18:22:41;;;;;;;3.55;0.88;;;;;;;;;;6338756;22;20027;-85
2022/09/21 18:25:13;;;;;;;3.97;1.15;;;;;;;;;;6360681;22;20079;-86
2022/09/21 18:27:46;;;;;;;3.78;0.85;;;;;;;;;;6308566;22;20022;-87
2022/09/21 18:30:12;;;;;;;7.80;2.00;;;;;;;;;;6359292;22;20018;-86
2022/09/21 18:32:52;;;;;;;9.32;2.50;;;;;;;;;;6335442;22;20014;-87
2022/09/21 18:35:27;;;;;;;3.50;1.55;;;;;;;;;;6360968;22;20029;-87
2022/09/21 18:37:58;;;;;;;9.23;1.52;;;;;;;;;;6362918;22;20071;-85
2022/09/21 18:40:30;;;;;;;6.68;1.55;;;;;;;;;;6364545;22;20022;-83
2022/09/21 18:43:03;;;;;;;9.15;1.20;;;;;;;;;;6310005;22;20470;-84
2022/09/21 18:45:33;;;;;;;5.50;0.80;;;;;;;;;;6337097;22;20033;-85
2022/09/21 18:48:03;;;;;;;2.72;1.10;;;;;;;;;;6335528;22;21125;-85
2022/09/21 18:50:38;;;;;;;4.43;1.00;;;;;;;;;;6364231;22;20014;-83
2022/09/21 18:53:27;;;;;;;2.50;0.82;;;;;;;;;;6333297;22;20025;-83
2022/09/21 18:55:53;;;;;;;5.30;1.20;;;;;;;;;;6360401;22;20033;-86
2022/09/21 18:58:19;;;;;;;4.97;0.90;;;;;;;;;;6359866;22;20014;-85
2022/09/21 19:00:47;;;;;;;4.15;0.68;;;;;;;;;;6333999;22;20552;-85
2022/09/21 19:03:14;;;;;;;5.20;1.20;;;;;;;;;;6359119;22;20021;-86
2022/09/21 19:06:06;;;;;;;3.58;1.15;;;;;;;;;;6334320;22;20026;-86
2022/09/21 19:08:33;;;;;;;7.13;1.90;;;;;;;;;;6301690;22;20021;-84
2022/09/21 19:14:28;;;;;;;7.30;3.50;;;;;;;;;;6358879;22;20052;-86
2022/09/21 19:17:25;;;;;;;6.47;1.92;;;;;;;;;;6362153;22;20387;-85
2022/09/21 19:20:11;;;;;;;5.90;1.60;;;;;;;;;;6305504;22;20050;-86
2022/09/21 19:22:37;;;;;;;2.28;1.10;;;;;;;;;;6334843;22;20014;-86
2022/09/21 19:25:12;;;;;;;5.00;1.67;;;;;;;;;;6333342;22;20026;-85
2022/09/21 19:27:42;;;;;;;4.35;1.45;;;;;;;;;;6333303;22;20014;-86
2022/09/21 19:30:25;;;;;;;6.22;1.38;;;;;;;;;;6360688;22;20029;-86
2022/09/21 19:32:57;;;;;;;5.78;1.27;;;;;;;;;;6307224;22;20025;-87
2022/09/21 19:41:56;;;;;;;5.18;1.27;;;;;;;;;;6311648;22;20015;-87
2022/09/21 19:44:48;;;;;;;8.05;1.60;;;;;;;;;;6297052;22;20674;-86
2022/09/21 20:00:24;;;;;;;5.10;1.25;;;;;;;;;;6275486;22;20029;-85
2022/09/21 20:03:09;;;;;;;3.05;1.08;;;;;;;;;;6279745;22;20016;-86
2022/09/21 20:05:36;;;;;;;5.65;1.15;;;;;;;;;;6274716;22;20019;-87
2022/09/21 20:08:23;;;;;;;2.05;0.90;;;;;;;;;;6248308;22;20019;-86
2022/09/21 20:11:00;;;;;;;4.25;1.00;;;;;;;;;;6273633;22;20015;-87
2022/09/21 20:13:42;;;;;;;3.90;1.27;;;;;;;;;;6299858;22;20022;-85
2022/09/21 20:16:33;;;;;;;11.23;1.58;;;;;;;;;;6245722;22;20397;-87
2022/09/21 20:19:08;;;;;;;6.38;1.55;;;;;;;;;;6300879;22;20023;-86
2022/09/21 20:21:39;;;;;;;8.65;1.50;;;;;;;;;;6248066;22;20026;-85
2022/09/21 20:24:44;;;;;;;3.60;1.80;;;;;;;;;;6274502;22;20020;-87
2022/09/21 20:27:20;;;;;;;7.05;1.80;;;;;;;;;;6152620;22;20088;-86
2022/09/21 20:29:46;;;;;;;6.88;2.05;;;;;;;;;;6301698;22;20019;-87
2022/09/21 20:32:25;;;;;;;7.05;2.00;;;;;;;;;;6252476;22;20015;-88
2022/09/21 20:35:10;;;;;;;11.52;1.83;;;;;;;;;;6281364;22;20023;-86
2022/09/21 20:37:45;;;;;;;13.82;2.10;;;;;;;;;;6252310;22;20205;-87
2022/09/21 20:40:12;;;;;;;5.88;2.03;;;;;;;;;;6304489;22;20015;-87
2022/09/21 20:42:39;;;;;;;4.88;2.20;;;;;;;;;;6275171;22;20016;-89
2022/09/21 20:45:09;;;;;;;7.65;1.83;;;;;;;;;;6277614;22;20029;-87
2022/09/21 21:05:22;;;;;;;4.82;2.42;;;;;;;;;;6302931;22;20114;-88
2022/09/21 21:07:48;;;;;;;;;;;;;;;;;;6245248;22;20079;-87
2022/09/21 21:20:10;;;;;;;5.80;2.63;;;11.20;99.90;;;;;;6302745;22;20019;-86
2022/09/21 21:29:21;;;;;;;4.57;2.22;;;;;;;;;;6301961;22;20572;-86
2022/09/21 21:31:48;;;;;;;3.97;2.42;;;;;;;;;;6273467;22;20046;-87
2022/09/21 21:37:28;;;;;;;3.92;2.20;;;;;;;;;;6301273;22;20031;-86
2022/09/21 21:42:25;;;;;;;6.53;2.55;;;;;;;;;;6356347;22;20042;-85
2022/09/21 21:51:00;;;;;;;5.80;1.92;;;;;;;;;;6238959;22;20475;-85
2022/09/21 21:53:26;;;;;;;7.85;2.35;;;;;;;;;;6241104;22;20399;-86
2022/09/21 21:58:43;;;;;;;4.05;1.90;;;;;;;;;;6300057;22;20027;-87
2022/09/21 22:01:11;;;;;;;18.05;2.35;;;;;;;;;;6251160;22;20500;-87
2022/09/21 22:03:38;;;;;;;9.30;2.10;;;;;;;;;;6275477;22;20374;-86
2022/09/21 22:06:04;;;;;;;13.27;2.55;;;;;;;;;;6276106;22;20084;-87
2022/09/21 22:08:43;;;;;;;7.95;2.10;;;;;;;;;;6303391;22;20580;-87
2022/09/21 22:11:13;;;;;;;5.35;1.85;;;;;;;;;;6305489;22;20019;-89
2022/09/21 22:50:07;;;;;;;6.43;2.35;;;;;;;;;;6303339;22;20017;-86
2022/09/21 22:52:48;;;;;;;4.63;2.75;;;;;;;;;;6246423;22;20023;-87
2022/09/21 22:55:17;;;;;;;8.10;2.83;;;;;;;;;;6256512;22;20214;-86
2022/09/21 22:57:44;;;;;;;5.10;2.60;;;;;;;;;;6215876;22;20776;-87
2022/09/21 23:00:19;;;;;;;6.80;2.65;;;;;;;;;;6271486;22;20349;-86
2022/09/21 23:02:55;;;;;;;6.22;2.83;;;;;;;;;;6288430;22;20026;-87
2022/09/21 23:05:22;;;;;;;5.80;2.55;;;;;;;;;;6244716;22;20356;-87
2022/09/21 23:14:19;;;;;;;2.58;2.35;;;;;;;;;;6245768;22;20467;-87
2022/09/21 23:30:17;;;;;;;5.18;3.80;;;;;;;;;;6305550;22;20144;-87
2022/09/21 23:32:43;;;;;;;10.82;5.25;;;;;;;;;;6297054;22;20099;-88
2022/09/21 23:42:55;;;;;;;10.15;4.32;;;;;;;;;;6272251;22;20034;-88
2022/09/21 23:52:13;;;;;;;8.13;3.85;;;;;;;;;;6299375;22;21133;-87
2022/09/21 23:58:21;;;;;;;9.85;4.63;;;;;;;;;;6317536;22;20398;-87
